LFLW

Details ICAO LFLW (AUR)
Name Aurillac
Region France
Timezone Europe/Paris (UTC+2.0)
Plans Departing 16
Arriving 17
Stats Elevation 2,096 ft / 639 m (AMSL)
Location 44.891416° 2.422195°
Runways 1
Magnetic Variation 0.865° E
Sunrise 2018-05-23 04:15:16 UTC / 2018-05-23 06:15:16 Local
Sunset 2018-05-23 19:21:43 UTC / 2018-05-23 21:21:43 Local
Advertisement - Login to hide

Runways

ID Width Length Bearing (true) Bearing (mag) Surface Threshold Offset Overrun Length
15 98 ft / 30 m 5,430 ft / 1,655 m 150.01° 149.15° Asphalt 0 ft / 0 m 0 ft / 0 m
33 98 ft / 30 m 5,430 ft / 1,655 m 330.01° 329.15° Asphalt 0 ft / 0 m 0 ft / 0 m

Approach Navaids

Runway Type Ident Frequency Range Bearing (true) Bearing (mag) Slope Elevation
15 Localiser AR 110.30 MHz 18 nm / 33 km 150.87° 150.01° - 2,057 ft / 627 m (AMSL)
15 Glidescope AR 110.30 MHz 10 nm / 19 km 150.01° 149.14° 3.00° 2,106 ft / 642 m (AMSL)

Map

Weather


0- 5 10 15 20 25 30 35+ Temperature / ° C

Clouds and Precipitation
Forecast for 2018-05-23 12:00 UTC. Updated 6 hours ago

Ground ~20,000 ft ~40,000 ft Winds

METAR

LFLW 231700Z AUTO 04005KT 010V090 CAVOK 20/08 Q1017 TEMPO TSRA BECMG FEW040TCU BKN050

TAF

Not found

Frequencies

Tower 118.32 MHz INFO
Warning: Do not use this data for real-world aviation or navigation. No guarantee of current accuracy is given.